Time;durP1;ratioP1;P1;durP2;ratioP2;P2;SDS_P1;SDS_P2;PMS_P1;PMS_P2;Temp;Humidity;BMP_temperature;BMP_pressure;BME280_temperature;BME280_humidity;BME280_pressure;Samples;Min_cycle;Max_cycle;Signal;HPM_P1;HPM_P2
2023/05/20 00:00:34;;;;;;;5.85;3.38;;;16.00;92.60;;;;;;4986185;28;20237;-38
2023/05/20 00:03:04;;;;;;;8.52;3.88;;;16.00;92.60;;;;;;4987407;28;20206;-38
2023/05/20 00:05:34;;;;;;;6.50;3.38;;;16.00;92.70;;;;;;4986419;28;20288;-38
2023/05/20 00:08:08;;;;;;;7.60;3.40;;;16.00;92.60;;;;;;4977410;28;20207;-38
2023/05/20 00:10:35;;;;;;;6.20;3.42;;;15.90;92.70;;;;;;4985944;28;20206;-38
2023/05/20 00:13:05;;;;;;;9.80;3.60;;;15.90;92.70;;;;;;4985174;28;20556;-38
2023/05/20 00:15:35;;;;;;;6.43;4.15;;;15.90;92.70;;;;;;4986061;28;20607;-38
2023/05/20 00:18:06;;;;;;;7.80;3.65;;;15.90;92.80;;;;;;4986225;28;20234;-38
2023/05/20 00:20:36;;;;;;;6.78;3.35;;;15.80;92.80;;;;;;4986162;28;20203;-38
2023/05/20 00:23:06;;;;;;;5.03;3.30;;;15.80;92.80;;;;;;4986883;28;20703;-38
2023/05/20 00:25:33;;;;;;;5.88;3.17;;;15.80;92.70;;;;;;4999966;28;20201;-38
2023/05/20 00:28:00;;;;;;;7.93;3.30;;;15.80;92.70;;;;;;5003355;28;20213;-39
2023/05/20 00:30:35;;;;;;;6.47;3.35;;;15.80;92.80;;;;;;4988158;28;20337;-38
2023/05/20 00:33:02;;;;;;;5.53;3.40;;;15.80;92.80;;;;;;5005540;28;20201;-39
2023/05/20 00:35:30;;;;;;;6.00;3.42;;;15.80;92.80;;;;;;5004262;28;20202;-38
2023/05/20 00:37:57;;;;;;;6.00;3.22;;;15.80;92.80;;;;;;4991117;28;20242;-38
2023/05/20 00:40:24;;;;;;;7.80;3.13;;;15.70;92.80;;;;;;4984542;28;20260;-38
2023/05/20 00:42:54;;;;;;;7.22;3.30;;;15.70;92.80;;;;;;4984939;28;20210;-38
2023/05/20 00:45:24;;;;;;;7.07;3.28;;;15.70;92.80;;;;;;4985264;28;20221;-38
2023/05/20 00:47:58;;;;;;;4.75;3.30;;;15.70;92.90;;;;;;4984419;28;20241;-38
2023/05/20 00:50:26;;;;;;;5.25;3.25;;;15.70;92.90;;;;;;4985596;28;20233;-38
2023/05/20 00:52:57;;;;;;;4.78;3.65;;;15.70;92.90;;;;;;4986072;28;20264;-38
2023/05/20 00:55:32;;;;;;;5.95;3.60;;;15.70;92.90;;;;;;4983967;28;20677;-38
2023/05/20 00:58:02;;;;;;;5.05;3.58;;;15.70;92.90;;;;;;4983104;28;20312;-38
2023/05/20 01:00:29;;;;;;;6.50;3.50;;;15.60;92.90;;;;;;4982529;28;20222;-38
2023/05/20 01:02:59;;;;;;;4.70;3.10;;;15.60;92.90;;;;;;4988998;28;20489;-38
2023/05/20 01:05:29;;;;;;;5.38;3.45;;;15.60;92.90;;;;;;4999766;28;20223;-38
2023/05/20 01:07:56;;;;;;;6.22;3.70;;;15.50;92.90;;;;;;4991151;28;20304;-38
2023/05/20 01:10:28;;;;;;;4.55;3.25;;;15.50;92.90;;;;;;5005047;28;20614;-38
2023/05/20 01:13:03;;;;;;;5.47;3.47;;;15.50;93.00;;;;;;5004526;28;20248;-38
2023/05/20 01:15:38;;;;;;;6.15;3.08;;;15.50;93.00;;;;;;5002223;28;20248;-38
2023/05/20 01:18:09;;;;;;;7.55;3.30;;;15.50;93.10;;;;;;5005106;28;20217;-38
2023/05/20 01:20:38;;;;;;;4.80;2.90;;;15.40;93.00;;;;;;5003135;28;20237;-38
2023/05/20 01:23:07;;;;;;;5.00;3.33;;;15.40;93.00;;;;;;5003229;28;20210;-38
2023/05/20 01:25:34;;;;;;;5.85;3.50;;;15.40;93.00;;;;;;5004398;28;20996;-39
2023/05/20 01:28:04;;;;;;;3.97;3.13;;;15.40;93.10;;;;;;5003155;28;20206;-38
2023/05/20 01:30:40;;;;;;;4.28;2.90;;;15.30;93.00;;;;;;4999711;28;20288;-38
2023/05/20 01:33:11;;;;;;;5.07;2.85;;;15.30;93.10;;;;;;4988740;28;20834;-38
2023/05/20 01:35:43;;;;;;;4.57;2.78;;;15.30;93.20;;;;;;4984548;28;20206;-38
2023/05/20 01:38:20;;;;;;;6.20;3.28;;;15.30;93.20;;;;;;4983777;28;20226;-38
2023/05/20 01:40:48;;;;;;;3.88;3.30;;;15.30;93.20;;;;;;4982679;28;20221;-38
2023/05/20 01:43:20;;;;;;;4.77;3.27;;;15.30;93.20;;;;;;4967814;28;20206;-38
2023/05/20 01:45:49;;;;;;;5.78;3.45;;;15.30;93.40;;;;;;4982677;28;20272;-38
2023/05/20 01:48:17;;;;;;;4.38;2.88;;;15.30;93.10;;;;;;4984351;28;20699;-38
2023/05/20 01:50:46;;;;;;;5.70;2.92;;;15.20;93.10;;;;;;4984081;28;20690;-38
2023/05/20 01:53:13;;;;;;;3.63;3.17;;;15.20;93.10;;;;;;5004405;28;20221;-39
2023/05/20 01:55:45;;;;;;;4.27;3.03;;;15.20;93.10;;;;;;5004192;28;20233;-38
2023/05/20 01:58:12;;;;;;;5.72;2.97;;;15.10;93.20;;;;;;5002891;28;20707;-38
2023/05/20 02:00:39;;;;;;;8.25;2.95;;;15.10;93.10;;;;;;5001745;28;20201;-38
2023/05/20 02:03:07;;;;;;;5.07;2.83;;;15.10;93.10;;;;;;5004824;28;20232;-38
2023/05/20 02:05:34;;;;;;;4.03;2.58;;;15.10;93.10;;;;;;5004132;28;20205;-31
2023/05/20 02:08:04;;;;;;;4.18;2.60;;;15.00;93.20;;;;;;4983035;28;20269;-31
2023/05/20 02:10:37;;;;;;;3.93;2.80;;;15.00;93.10;;;;;;4984244;28;20202;-31
2023/05/20 02:13:04;;;;;;;5.55;2.80;;;15.00;93.10;;;;;;4984048;28;20638;-31
2023/05/20 02:15:34;;;;;;;3.20;2.72;;;15.00;93.10;;;;;;4983262;28;20221;-31
2023/05/20 02:18:04;;;;;;;5.53;2.88;;;15.00;93.10;;;;;;4983136;28;20328;-31
2023/05/20 02:20:35;;;;;;;5.63;2.35;;;15.00;93.10;;;;;;4983901;28;20571;-31
2023/05/20 02:23:04;;;;;;;5.35;2.83;;;15.00;93.10;;;;;;4984779;28;20614;-31
2023/05/20 02:25:35;;;;;;;5.30;2.70;;;14.90;93.10;;;;;;4988241;28;20238;-31
2023/05/20 02:28:04;;;;;;;4.63;2.80;;;14.90;93.10;;;;;;5004036;28;20206;-31
2023/05/20 02:30:34;;;;;;;3.28;2.08;;;14.90;93.10;;;;;;5003325;28;20198;-31
2023/05/20 02:33:03;;;;;;;5.57;2.60;;;14.90;93.20;;;;;;5004167;28;20209;-31
2023/05/20 02:35:31;;;;;;;3.58;2.55;;;14.90;93.20;;;;;;5003789;28;20213;-31
2023/05/20 02:38:00;;;;;;;4.67;2.60;;;14.90;93.10;;;;;;5004104;28;20647;-31
2023/05/20 02:40:33;;;;;;;4.63;2.67;;;14.80;93.10;;;;;;4996686;28;20210;-31
2023/05/20 02:43:00;;;;;;;6.70;3.47;;;14.80;93.10;;;;;;4993907;28;20206;-31
2023/05/20 02:45:30;;;;;;;4.43;2.60;;;14.80;93.10;;;;;;5002625;28;20607;-31
2023/05/20 02:47:57;;;;;;;5.50;2.58;;;14.80;93.20;;;;;;5003671;28;20202;-31
2023/05/20 02:50:25;;;;;;;3.60;2.60;;;14.80;93.20;;;;;;4986938;28;20371;-31
2023/05/20 02:52:52;;;;;;;3.60;2.57;;;14.70;93.20;;;;;;4986833;28;20218;-31
2023/05/20 02:55:22;;;;;;;5.40;2.47;;;14.70;93.30;;;;;;4970001;28;20202;-31
2023/05/20 02:57:52;;;;;;;3.10;2.67;;;14.70;93.30;;;;;;4986551;28;20779;-31
2023/05/20 03:00:19;;;;;;;6.93;2.80;;;14.70;93.30;;;;;;4985830;28;20264;-31
2023/05/20 03:02:46;;;;;;;6.40;2.78;;;14.60;93.40;;;;;;4987369;28;20218;-31
2023/05/20 03:05:16;;;;;;;4.33;2.77;;;14.60;93.40;;;;;;4985437;28;20206;-31
2023/05/20 03:07:45;;;;;;;5.50;2.85;;;14.60;93.40;;;;;;4985824;28;20214;-31
2023/05/20 03:10:12;;;;;;;5.27;2.70;;;14.60;93.30;;;;;;4970064;28;20198;-31
2023/05/20 03:12:46;;;;;;;4.03;2.70;;;14.50;93.30;;;;;;4985870;28;20224;-31
2023/05/20 03:15:13;;;;;;;4.63;3.03;;;14.50;93.60;;;;;;4987128;28;20273;-31
2023/05/20 03:17:41;;;;;;;3.53;2.90;;;14.50;93.50;;;;;;4985492;28;20222;-31
2023/05/20 03:20:11;;;;;;;5.13;2.70;;;14.50;93.40;;;;;;4987039;28;20711;-31
2023/05/20 03:22:40;;;;;;;4.38;2.75;;;14.50;93.40;;;;;;4989051;28;20217;-31
2023/05/20 03:25:08;;;;;;;3.75;2.60;;;14.40;93.40;;;;;;4986718;28;20215;-31
2023/05/20 03:27:37;;;;;;;4.60;2.80;;;14.40;93.40;;;;;;4987203;28;20206;-31
2023/05/20 03:30:05;;;;;;;7.30;2.85;;;14.30;93.40;;;;;;4985977;28;20603;-31
2023/05/20 03:32:33;;;;;;;4.25;2.90;;;14.30;93.50;;;;;;4987262;28;20720;-31
2023/05/20 03:35:00;;;;;;;4.57;2.70;;;14.30;93.50;;;;;;4985365;28;20210;-31
2023/05/20 03:37:29;;;;;;;5.18;3.28;;;14.30;93.60;;;;;;4986688;28;20746;-31
2023/05/20 03:39:57;;;;;;;6.33;2.87;;;14.30;93.60;;;;;;4984999;28;20210;-39
2023/05/20 03:42:26;;;;;;;4.60;2.60;;;14.30;93.60;;;;;;4986664;28;20837;-39
2023/05/20 03:44:54;;;;;;;8.23;2.95;;;14.20;93.50;;;;;;4984232;28;20201;-39
2023/05/20 03:47:23;;;;;;;3.73;3.13;;;14.20;93.40;;;;;;4985242;28;20206;-31
2023/05/20 03:49:51;;;;;;;5.68;3.75;;;14.20;93.50;;;;;;4986806;28;20943;-31
2023/05/20 03:52:21;;;;;;;4.82;2.58;;;14.20;93.70;;;;;;4969008;28;20580;-31
2023/05/20 03:54:51;;;;;;;6.57;3.10;;;14.20;93.80;;;;;;4985438;28;20692;-31
2023/05/20 03:57:20;;;;;;;6.00;2.90;;;14.20;93.60;;;;;;4986190;28;20268;-31
2023/05/20 03:59:47;;;;;;;4.00;2.92;;;14.20;93.60;;;;;;4952369;28;20652;-31
2023/05/20 04:02:18;;;;;;;8.10;3.43;;;14.20;93.70;;;;;;4984857;28;20597;-31
2023/05/20 04:04:51;;;;;;;4.30;2.70;;;14.20;93.80;;;;;;4987245;28;20206;-31
2023/05/20 04:07:21;;;;;;;6.10;2.80;;;14.20;93.90;;;;;;5006158;28;20201;-31
2023/05/20 04:09:51;;;;;;;5.00;2.77;;;14.20;93.90;;;;;;5004613;28;20758;-31
2023/05/20 04:12:24;;;;;;;5.85;2.85;;;14.20;94.00;;;;;;5006252;28;20217;-31
2023/05/20 04:14:54;;;;;;;4.95;3.10;;;14.20;94.00;;;;;;4985603;28;20205;-31
2023/05/20 04:17:21;;;;;;;4.60;3.05;;;14.20;94.10;;;;;;4987177;28;20225;-31
2023/05/20 04:19:51;;;;;;;5.40;3.10;;;14.20;94.00;;;;;;4984786;28;20226;-31
2023/05/20 04:22:18;;;;;;;6.70;2.70;;;14.30;94.20;;;;;;4985011;28;20472;-31
2023/05/20 04:24:50;;;;;;;4.40;2.83;;;14.30;94.10;;;;;;4985750;28;20221;-31
2023/05/20 04:27:20;;;;;;;6.63;2.97;;;14.30;94.10;;;;;;4986217;28;20203;-31
2023/05/20 04:29:49;;;;;;;5.45;2.88;;;14.30;94.00;;;;;;4985160;28;20650;-31
2023/05/20 04:32:18;;;;;;;8.00;3.35;;;14.30;94.10;;;;;;4985709;28;20206;-32
2023/05/20 04:34:45;;;;;;;7.25;3.05;;;14.40;94.30;;;;;;4985659;28;20426;-31
2023/05/20 04:37:13;;;;;;;4.90;2.95;;;14.40;94.30;;;;;;4985456;28;20361;-31
2023/05/20 04:39:47;;;;;;;6.20;3.40;;;14.40;94.30;;;;;;4984356;28;20663;-32
2023/05/20 04:42:17;;;;;;;5.72;3.17;;;14.50;94.40;;;;;;4991587;28;20293;-31
2023/05/20 04:44:47;;;;;;;4.63;3.00;;;14.40;94.40;;;;;;4990542;28;20202;-32
2023/05/20 04:47:17;;;;;;;6.27;3.63;;;14.50;94.40;;;;;;4978934;28;20605;-32
2023/05/20 04:49:45;;;;;;;5.57;3.23;;;14.50;94.70;;;;;;4994074;28;20272;-32
2023/05/20 04:52:17;;;;;;;5.47;3.30;;;14.50;94.50;;;;;;4989632;28;20210;-31
2023/05/20 04:54:45;;;;;;;6.13;3.08;;;14.60;94.70;;;;;;5003682;28;20591;-32
2023/05/20 04:57:15;;;;;;;5.75;3.00;;;14.60;94.60;;;;;;4989954;28;20336;-32
2023/05/20 04:59:45;;;;;;;6.28;3.55;;;14.60;95.30;;;;;;4986705;28;20237;-31
2023/05/20 05:02:12;;;;;;;6.83;3.47;;;14.60;94.70;;;;;;4978566;28;20237;-32
2023/05/20 05:04:39;;;;;;;5.32;3.58;;;14.70;94.80;;;;;;4990387;28;20218;-32
2023/05/20 05:07:09;;;;;;;6.60;3.33;;;14.70;94.80;;;;;;4991354;28;20210;-32
2023/05/20 05:09:39;;;;;;;6.85;3.05;;;14.60;94.70;;;;;;4995127;28;20292;-32
2023/05/20 05:12:06;;;;;;;6.32;3.55;;;14.70;94.80;;;;;;4995465;28;20209;-32
2023/05/20 05:14:38;;;;;;;5.45;3.13;;;14.70;95.10;;;;;;4990922;28;20408;-32
2023/05/20 05:17:08;;;;;;;6.63;4.43;;;14.70;94.90;;;;;;4993224;28;20210;-32
2023/05/20 05:19:36;;;;;;;7.43;3.90;;;14.70;94.90;;;;;;5001202;28;20225;-32
2023/05/20 05:22:05;;;;;;;6.13;3.43;;;14.80;94.90;;;;;;5004229;28;20220;-32
2023/05/20 05:24:32;;;;;;;7.37;3.77;;;14.80;95.10;;;;;;4998273;28;20198;-31
2023/05/20 05:27:04;;;;;;;6.10;3.25;;;14.80;95.00;;;;;;4990646;28;20208;-31
2023/05/20 05:29:39;;;;;;;5.38;3.78;;;14.80;95.30;;;;;;5002104;28;20217;-32
2023/05/20 05:32:09;;;;;;;6.05;3.40;;;14.80;95.60;;;;;;5003843;28;20867;-31
2023/05/20 05:34:41;;;;;;;6.10;3.57;;;14.80;95.20;;;;;;4988391;28;20241;-32
2023/05/20 05:37:08;;;;;;;6.53;3.97;;;14.90;95.30;;;;;;4996764;28;20551;-39
2023/05/20 05:39:37;;;;;;;5.38;3.58;;;14.90;95.50;;;;;;4991011;28;20241;-40
2023/05/20 05:42:07;;;;;;;4.47;3.00;;;14.90;95.40;;;;;;4982859;28;20789;-40
2023/05/20 05:44:39;;;;;;;7.57;3.50;;;14.90;95.30;;;;;;4983118;28;20210;-40
2023/05/20 05:47:06;;;;;;;8.43;4.50;;;15.00;95.40;;;;;;4986325;28;20225;-40
2023/05/20 05:49:41;;;;;;;7.07;4.32;;;15.00;95.80;;;;;;5002361;28;20326;-40
2023/05/20 05:52:10;;;;;;;9.98;4.28;;;15.00;95.70;;;;;;4992954;28;20205;-39
2023/05/20 05:54:40;;;;;;;7.70;4.20;;;15.00;95.90;;;;;;4974110;28;20245;-40
2023/05/20 05:57:10;;;;;;;5.15;3.28;;;15.00;96.50;;;;;;4987013;28;20678;-40
2023/05/20 05:59:40;;;;;;;5.38;3.70;;;15.00;95.80;;;;;;4989683;28;20245;-39
2023/05/20 06:02:13;;;;;;;7.15;3.90;;;15.10;95.90;;;;;;4987601;28;20582;-39
2023/05/20 06:04:43;;;;;;;6.43;3.53;;;15.10;96.00;;;;;;4986873;28;20654;-40
2023/05/20 06:07:15;;;;;;;7.65;4.30;;;15.10;96.00;;;;;;4989121;28;20392;-40
2023/05/20 06:09:45;;;;;;;5.47;3.83;;;15.20;96.70;;;;;;4998691;28;20695;-40
2023/05/20 06:12:14;;;;;;;4.35;3.50;;;15.20;96.30;;;;;;4989234;28;20206;-40
2023/05/20 06:14:47;;;;;;;4.95;3.38;;;15.30;96.20;;;;;;4983318;28;20210;-40
2023/05/20 06:17:16;;;;;;;8.40;3.58;;;15.40;96.10;;;;;;4998311;28;20220;-38
2023/05/20 06:19:48;;;;;;;7.88;3.72;;;15.40;96.30;;;;;;4988808;28;20226;-40
2023/05/20 06:22:19;;;;;;;7.50;3.70;;;15.50;96.40;;;;;;4995667;28;20270;-39
2023/05/20 06:24:46;;;;;;;8.50;3.70;;;15.50;96.30;;;;;;4982374;28;20635;-39
2023/05/20 06:27:16;;;;;;;7.10;3.17;;;15.60;96.50;;;;;;4969798;28;20210;-39
2023/05/20 06:29:45;;;;;;;5.20;3.05;;;15.60;96.30;;;;;;4998936;28;20668;-39
2023/05/20 06:32:15;;;;;;;4.28;3.47;;;15.60;96.70;;;;;;4987140;28;20206;-39
2023/05/20 06:34:45;;;;;;;5.82;3.80;;;15.60;96.80;;;;;;4985943;28;20658;-39
2023/05/20 06:37:15;;;;;;;6.95;3.85;;;15.60;96.80;;;;;;4989839;28;20235;-39
2023/05/20 06:39:42;;;;;;;8.00;3.83;;;15.70;96.90;;;;;;4991274;28;20222;-39
2023/05/20 06:42:11;;;;;;;8.05;3.30;;;15.70;96.80;;;;;;4992976;28;20222;-39
2023/05/20 06:44:40;;;;;;;5.93;3.28;;;15.80;96.70;;;;;;4990292;28;20260;-39
2023/05/20 06:47:13;;;;;;;5.28;3.28;;;15.90;96.80;;;;;;4991480;28;20210;-39
2023/05/20 06:49:42;;;;;;;5.93;3.70;;;16.00;96.90;;;;;;4987802;28;20210;-39
2023/05/20 06:52:13;;;;;;;6.43;3.40;;;16.00;97.10;;;;;;4989304;28;20767;-39
2023/05/20 06:54:42;;;;;;;6.25;3.63;;;16.10;97.30;;;;;;5002841;28;20209;-39
2023/05/20 06:57:10;;;;;;;7.88;3.67;;;16.10;97.50;;;;;;4998171;28;20656;-31
2023/05/20 06:59:38;;;;;;;3.50;2.88;;;16.10;97.60;;;;;;4993225;28;20240;-31
2023/05/20 07:02:05;;;;;;;6.30;3.33;;;16.20;97.20;;;;;;4997810;28;20221;-31
2023/05/20 07:04:35;;;;;;;4.57;3.40;;;16.20;97.40;;;;;;4996971;28;20263;-31
2023/05/20 07:07:02;;;;;;;3.97;3.13;;;16.30;97.30;;;;;;4982417;28;20206;-31
2023/05/20 07:09:31;;;;;;;7.80;3.35;;;16.40;97.10;;;;;;4987831;28;20612;-31
2023/05/20 07:12:03;;;;;;;5.82;3.45;;;16.40;97.40;;;;;;4985349;28;20665;-30
2023/05/20 07:14:33;;;;;;;6.15;3.67;;;16.50;97.60;;;;;;4986329;28;20214;-31
2023/05/20 07:17:05;;;;;;;4.85;2.83;;;16.60;97.60;;;;;;4983326;28;20723;-31
2023/05/20 07:19:39;;;;;;;4.47;3.10;;;16.60;97.40;;;;;;4988730;28;20229;-31
2023/05/20 07:22:08;;;;;;;5.82;3.20;;;16.70;97.50;;;;;;5004284;28;20205;-31
2023/05/20 07:24:38;;;;;;;6.13;3.42;;;16.80;97.50;;;;;;4982669;28;20203;-31
2023/05/20 07:27:05;;;;;;;5.10;3.17;;;16.90;97.70;;;;;;4986086;28;20210;-31
2023/05/20 07:29:35;;;;;;;6.93;3.28;;;16.90;97.50;;;;;;4992465;28;20206;-31
2023/05/20 07:32:04;;;;;;;4.15;3.20;;;16.90;97.40;;;;;;4996820;28;20225;-31
2023/05/20 07:34:34;;;;;;;4.00;3.00;;;17.00;97.60;;;;;;4998011;28;20224;-31
2023/05/20 07:37:01;;;;;;;5.47;2.90;;;17.00;97.60;;;;;;4984753;28;20241;-31
2023/05/20 07:39:31;;;;;;;5.50;3.03;;;17.00;97.60;;;;;;4983409;28;20712;-31
2023/05/20 07:42:03;;;;;;;4.00;2.78;;;17.00;97.70;;;;;;4990840;28;20293;-31
2023/05/20 07:44:32;;;;;;;3.63;2.78;;;17.10;97.80;;;;;;5003585;28;20213;-31
2023/05/20 07:47:02;;;;;;;4.00;2.80;;;17.10;97.60;;;;;;4998975;28;20202;-31
2023/05/20 07:49:30;;;;;;;6.72;3.20;;;17.20;97.60;;;;;;4999496;28;20580;-31
2023/05/20 07:52:02;;;;;;;4.05;2.70;;;17.30;97.60;;;;;;4994407;28;20225;-31
2023/05/20 07:54:31;;;;;;;4.53;2.70;;;17.40;97.50;;;;;;4977726;28;20629;-31
2023/05/20 07:57:01;;;;;;;9.77;3.38;;;17.50;97.60;;;;;;4985252;28;20242;-31
2023/05/20 07:59:30;;;;;;;3.83;2.67;;;17.50;97.60;;;;;;4982734;28;20645;-31
2023/05/20 08:02:02;;;;;;;3.72;3.10;;;17.60;97.50;;;;;;4994543;28;20245;-31
2023/05/20 08:04:31;;;;;;;4.68;3.00;;;17.60;97.60;;;;;;4998613;28;20555;-31
2023/05/20 08:07:01;;;;;;;3.38;2.60;;;17.60;97.60;;;;;;4994695;28;20252;-31
2023/05/20 08:09:30;;;;;;;4.03;2.55;;;17.60;97.60;;;;;;4989769;28;20225;-32
2023/05/20 08:11:59;;;;;;;6.45;3.03;;;17.70;97.60;;;;;;4990599;28;20206;-31
2023/05/20 08:14:29;;;;;;;5.50;2.85;;;17.70;97.60;;;;;;4983641;28;20638;-31
2023/05/20 08:16:56;;;;;;;5.68;3.05;;;17.80;97.50;;;;;;4982784;28;20218;-31
2023/05/20 08:19:24;;;;;;;3.60;2.80;;;17.90;97.30;;;;;;4986920;28;21008;-31
2023/05/20 08:21:56;;;;;;;3.30;2.53;;;18.00;97.40;;;;;;4988817;28;20644;-32
2023/05/20 08:24:23;;;;;;;9.70;3.10;;;18.00;97.50;;;;;;5001351;28;20208;-31
2023/05/20 08:26:50;;;;;;;7.10;2.53;;;18.10;97.30;;;;;;5001853;28;20221;-32
2023/05/20 08:29:20;;;;;;;6.47;3.20;;;18.10;97.30;;;;;;5002901;28;20206;-31
2023/05/20 08:31:47;;;;;;;5.88;2.85;;;18.20;97.30;;;;;;4987079;28;20210;-31
2023/05/20 08:34:17;;;;;;;4.88;3.13;;;18.30;97.20;;;;;;4968204;28;20226;-31
2023/05/20 08:36:46;;;;;;;5.90;3.55;;;18.30;97.30;;;;;;4982614;28;20214;-31
2023/05/20 08:39:14;;;;;;;5.72;3.00;;;18.30;97.40;;;;;;4983337;28;20237;-31
2023/05/20 08:41:41;;;;;;;7.20;2.75;;;18.30;97.10;;;;;;5002868;28;20228;-31
2023/05/20 08:44:11;;;;;;;8.93;2.88;;;18.30;97.10;;;;;;5002478;28;20198;-31
2023/05/20 08:46:39;;;;;;;4.72;2.90;;;18.40;97.10;;;;;;4983975;28;20251;-38
2023/05/20 08:49:09;;;;;;;7.85;3.35;;;18.30;97.00;;;;;;4982058;28;20218;-38
2023/05/20 08:51:38;;;;;;;5.38;2.45;;;18.40;97.00;;;;;;4998586;28;20206;-38
2023/05/20 08:54:11;;;;;;;7.88;2.90;;;18.40;97.10;;;;;;4995355;28;20308;-38
2023/05/20 08:56:40;;;;;;;3.13;2.42;;;18.50;97.00;;;;;;4999502;28;20395;-38
2023/05/20 08:59:10;;;;;;;5.85;2.22;;;18.60;97.10;;;;;;4992011;28;20258;-38
2023/05/20 09:01:47;;;;;;;3.58;2.58;;;18.70;97.20;;;;;;4993356;28;20748;-39
2023/05/20 09:04:14;;;;;;;5.95;3.20;;;18.80;97.20;;;;;;5000356;28;20217;-39
2023/05/20 09:06:47;;;;;;;6.28;3.00;;;18.70;96.90;;;;;;4998633;28;20205;-37
2023/05/20 09:09:18;;;;;;;4.65;2.97;;;18.80;96.90;;;;;;4983742;28;20210;-37
2023/05/20 09:11:48;;;;;;;7.40;2.75;;;18.90;96.90;;;;;;4987822;28;20226;-37
2023/05/20 09:14:18;;;;;;;5.18;2.60;;;18.80;96.70;;;;;;4982786;28;20272;-37
2023/05/20 09:16:48;;;;;;;2.95;2.25;;;18.90;96.90;;;;;;4982067;28;20210;-37
2023/05/20 09:19:15;;;;;;;6.55;2.70;;;18.90;96.90;;;;;;4991040;28;20232;-36
2023/05/20 09:21:46;;;;;;;4.43;2.55;;;18.90;96.70;;;;;;4996419;28;21034;-38
2023/05/20 09:24:21;;;;;;;4.22;2.35;;;18.90;96.50;;;;;;4995078;28;20644;-38
2023/05/20 09:26:49;;;;;;;3.63;2.63;;;19.00;96.70;;;;;;4984720;28;20242;-32
2023/05/20 09:29:20;;;;;;;3.28;2.85;;;19.00;96.80;;;;;;4973849;28;20223;-32
2023/05/20 09:31:49;;;;;;;3.30;2.40;;;19.00;96.50;;;;;;4991860;28;20202;-32
2023/05/20 09:34:17;;;;;;;6.30;2.47;;;19.00;96.40;;;;;;4991670;28;20285;-32
2023/05/20 09:36:52;;;;;;;4.05;2.60;;;19.00;96.60;;;;;;4990172;28;20226;-32
2023/05/20 09:39:29;;;;;;;9.40;3.20;;;19.00;96.70;;;;;;4987831;28;20333;-33
2023/05/20 09:42:13;;;;;;;6.47;3.03;;;19.00;96.40;;;;;;4981754;28;20292;-33
2023/05/20 09:44:41;;;;;;;4.40;2.80;;;18.90;96.40;;;;;;4994826;28;20261;-33
2023/05/20 09:47:11;;;;;;;34.35;4.60;;;19.00;96.60;;;;;;4983325;28;20202;-36
2023/05/20 09:49:40;;;;;;;6.13;2.55;;;19.10;96.70;;;;;;4981571;28;20709;-36
2023/05/20 09:52:09;;;;;;;4.38;2.60;;;19.20;96.90;;;;;;4992897;28;20239;-35
2023/05/20 09:54:42;;;;;;;3.47;2.72;;;19.20;96.90;;;;;;4991754;28;20834;-36
2023/05/20 09:57:09;;;;;;;4.95;2.90;;;19.30;97.00;;;;;;4994289;28;20252;-36
2023/05/20 09:59:40;;;;;;;5.55;2.70;;;19.40;97.00;;;;;;4981969;28;20218;-36
2023/05/20 10:02:13;;;;;;;4.78;3.15;;;19.50;97.20;;;;;;4983351;28;20217;-37
2023/05/20 10:04:50;;;;;;;5.25;2.88;;;19.60;97.00;;;;;;4989472;28;20618;-36
2023/05/20 10:07:30;;;;;;;3.63;2.85;;;19.60;97.00;;;;;;4982956;28;20210;-35
2023/05/20 10:10:09;;;;;;;5.07;2.50;;;19.60;97.10;;;;;;4982839;28;20608;-34
2023/05/20 10:13:07;;;;;;;3.35;2.65;;;19.60;97.00;;;;;;4993991;28;20688;-34
2023/05/20 10:15:54;;;;;;;4.28;2.45;;;19.60;96.70;;;;;;4974826;28;20661;-34
2023/05/20 10:18:24;;;;;;;10.82;3.00;;;19.70;97.00;;;;;;4982993;28;20218;-34
2023/05/20 10:20:52;;;;;;;7.57;3.03;;;19.70;96.80;;;;;;4983541;28;20237;-34
2023/05/20 10:23:23;;;;;;;4.20;2.50;;;19.80;96.50;;;;;;4988105;28;20302;-33
2023/05/20 10:25:54;;;;;;;3.92;2.78;;;19.80;97.00;;;;;;4992101;28;20206;-33
2023/05/20 10:28:32;;;;;;;4.57;2.92;;;19.90;96.60;;;;;;4981423;28;20206;-33
2023/05/20 10:30:59;;;;;;;5.88;3.03;;;19.90;97.00;;;;;;4980413;28;20206;-33
2023/05/20 10:33:40;;;;;;;5.05;2.60;;;19.90;97.00;;;;;;4983130;28;20205;-33
2023/05/20 10:36:09;;;;;;;4.40;2.45;;;20.00;97.00;;;;;;4997711;28;20220;-33
2023/05/20 10:38:48;;;;;;;5.70;2.80;;;20.00;97.10;;;;;;4988278;28;20688;-33
2023/05/20 10:41:23;;;;;;;6.18;3.22;;;20.10;97.10;;;;;;4995697;28;20355;-33
2023/05/20 10:44:04;;;;;;;3.85;2.35;;;20.20;97.10;;;;;;4997953;28;20207;-33
2023/05/20 10:46:33;;;;;;;4.70;3.08;;;20.20;97.10;;;;;;5000018;28;20264;-34
2023/05/20 10:49:20;;;;;;;5.38;2.60;;;20.20;96.90;;;;;;4980955;28;20218;-34
2023/05/20 10:51:53;;;;;;;5.95;3.20;;;20.20;96.90;;;;;;4996231;28;20210;-34
2023/05/20 10:54:25;;;;;;;7.63;2.55;;;20.20;96.70;;;;;;4990941;28;20209;-34
2023/05/20 10:56:56;;;;;;;6.00;2.90;;;20.20;96.80;;;;;;4982110;28;20591;-35
2023/05/20 10:59:27;;;;;;;2.83;2.40;;;20.10;96.60;;;;;;4983488;28;20242;-36
2023/05/20 11:01:55;;;;;;;5.95;2.95;;;20.20;96.90;;;;;;4980098;28;20619;-34
2023/05/20 11:04:25;;;;;;;3.60;2.40;;;20.30;96.80;;;;;;4996983;28;20728;-34
2023/05/20 11:06:57;;;;;;;6.35;2.83;;;20.40;97.20;;;;;;4982372;28;20210;-34
2023/05/20 11:09:24;;;;;;;4.45;2.95;;;20.40;96.60;;;;;;4982796;28;20199;-34
2023/05/20 11:11:53;;;;;;;15.35;3.85;;;20.40;96.90;;;;;;4999699;28;20198;-34
2023/05/20 11:14:21;;;;;;;7.80;3.22;;;20.40;96.70;;;;;;5000338;28;20221;-34
2023/05/20 11:16:53;;;;;;;5.82;2.83;;;20.40;96.80;;;;;;5003037;28;20205;-34
2023/05/20 11:19:23;;;;;;;8.20;3.13;;;20.50;96.90;;;;;;4995761;28;20205;-34
2023/05/20 11:21:52;;;;;;;5.15;3.15;;;20.50;96.80;;;;;;4983266;28;20553;-34
2023/05/20 11:24:26;;;;;;;3.53;2.50;;;20.50;96.90;;;;;;4991551;28;20217;-32
2023/05/20 11:26:56;;;;;;;2.90;2.35;;;20.60;97.20;;;;;;4996612;28;20301;-33
2023/05/20 11:29:31;;;;;;;4.57;3.15;;;20.80;97.40;;;;;;4979565;28;20624;-34
2023/05/20 11:32:02;;;;;;;4.07;2.70;;;20.80;97.10;;;;;;4998590;28;20312;-34
2023/05/20 11:34:35;;;;;;;7.32;3.80;;;20.80;97.30;;;;;;4992583;28;20206;-37
2023/05/20 11:37:07;;;;;;;5.28;2.80;;;20.90;97.30;;;;;;4986185;28;20209;-36
2023/05/20 11:39:40;;;;;;;3.60;2.67;;;20.90;97.20;;;;;;4992651;28;20711;-34
2023/05/20 11:42:07;;;;;;;5.95;2.90;;;21.00;97.20;;;;;;5000245;28;20247;-34
2023/05/20 11:44:37;;;;;;;4.30;2.83;;;20.90;97.00;;;;;;4985480;28;20631;-34
2023/05/20 11:47:07;;;;;;;3.83;2.20;;;21.00;97.20;;;;;;4987779;28;20210;-34
2023/05/20 11:49:40;;;;;;;3.17;2.72;;;21.00;97.40;;;;;;4998634;28;20204;-34
2023/05/20 11:52:09;;;;;;;3.65;2.80;;;21.10;97.50;;;;;;5002783;28;20251;-34
2023/05/20 11:54:39;;;;;;;5.72;3.05;;;21.10;97.40;;;;;;4984449;28;20197;-34
2023/05/20 11:57:10;;;;;;;3.72;2.95;;;21.10;97.10;;;;;;5003381;28;20256;-34
2023/05/20 11:59:38;;;;;;;5.03;2.55;;;21.20;97.50;;;;;;4986487;28;20289;-33
2023/05/20 12:02:08;;;;;;;2.95;2.67;;;21.30;97.60;;;;;;4992208;28;20202;-33
2023/05/20 12:04:35;;;;;;;4.25;2.55;;;21.30;97.60;;;;;;4996027;28;20619;-34
2023/05/20 12:07:08;;;;;;;15.85;2.58;;;21.50;97.60;;;;;;4984918;28;20560;-33
2023/05/20 12:09:37;;;;;;;3.33;2.50;;;21.60;97.60;;;;;;5000066;28;20202;-34
2023/05/20 12:12:05;;;;;;;4.97;2.95;;;21.70;97.80;;;;;;4969815;28;20257;-33
2023/05/20 12:14:37;;;;;;;4.20;2.97;;;21.70;97.50;;;;;;4997904;28;20210;-35
2023/05/20 12:17:07;;;;;;;3.13;2.83;;;21.80;97.40;;;;;;4988138;28;20418;-36
2023/05/20 12:19:34;;;;;;;3.55;2.47;;;21.80;97.70;;;;;;4989323;28;20397;-33
2023/05/20 12:22:05;;;;;;;3.63;2.67;;;21.80;97.20;;;;;;4993281;28;20577;-34
2023/05/20 12:24:35;;;;;;;4.05;2.65;;;21.70;97.30;;;;;;5002460;28;20436;-33
2023/05/20 12:27:05;;;;;;;6.00;2.88;;;21.80;97.30;;;;;;4999518;28;20345;-33
2023/05/20 12:29:35;;;;;;;4.10;2.70;;;21.80;97.10;;;;;;4988162;28;20639;-33
2023/05/20 12:32:05;;;;;;;3.38;2.40;;;21.80;97.20;;;;;;4985419;28;20344;-36
2023/05/20 12:34:34;;;;;;;4.30;2.67;;;21.80;97.40;;;;;;4982747;28;20206;-36
2023/05/20 12:37:04;;;;;;;4.82;2.50;;;21.80;97.10;;;;;;4989984;28;20202;-36
2023/05/20 12:39:31;;;;;;;3.08;2.40;;;21.90;97.30;;;;;;4999190;28;20230;-36
2023/05/20 12:42:01;;;;;;;3.53;2.60;;;21.80;97.20;;;;;;4997608;28;20236;-36
2023/05/20 12:44:31;;;;;;;3.17;2.55;;;21.80;96.90;;;;;;4984206;28;20682;-36
2023/05/20 12:46:58;;;;;;;4.03;2.70;;;21.80;96.90;;;;;;4986169;28;20699;-36
2023/05/20 12:49:26;;;;;;;2.85;2.30;;;21.80;97.30;;;;;;5001830;28;20284;-36
2023/05/20 12:51:55;;;;;;;3.17;1.90;;;21.80;97.10;;;;;;5001424;28;20240;-36
2023/05/20 12:54:26;;;;;;;2.20;2.00;;;21.90;97.20;;;;;;4991919;28;20267;-34
2023/05/20 12:56:57;;;;;;;2.55;2.05;;;22.00;97.50;;;;;;4982788;28;20266;-33
2023/05/20 12:59:29;;;;;;;3.30;2.55;;;22.10;97.60;;;;;;4999200;28;20217;-33